createdAt,value
2019-03-26T00:01:02.308Z,-1.90
2019-03-26T00:03:33.075Z,-1.90
2019-03-26T00:06:03.571Z,-1.60
2019-03-26T00:08:34.543Z,-1.30
2019-03-26T00:11:05.357Z,-1.20
2019-03-26T00:13:36.221Z,-1.00
2019-03-26T00:16:06.701Z,-0.80
2019-03-26T00:18:37.472Z,-0.60
2019-03-26T00:21:07.918Z,-0.50
2019-03-26T00:23:38.871Z,-0.40
2019-03-26T00:26:09.542Z,-0.50
2019-03-26T00:28:40.220Z,-0.40
2019-03-26T00:31:10.680Z,-0.90
2019-03-26T00:33:41.494Z,-1.00
2019-03-26T00:36:11.978Z,-1.30
2019-03-26T00:38:42.963Z,-1.50
2019-03-26T00:41:14.042Z,-1.70
2019-03-26T00:43:45.019Z,-1.70
2019-03-26T00:46:15.525Z,-1.70
2019-03-26T00:48:46.342Z,-1.70
2019-03-26T00:51:16.754Z,-1.70
2019-03-26T00:53:47.685Z,-1.70
2019-03-26T00:56:18.439Z,-1.70
2019-03-26T00:58:49.356Z,-1.80
2019-03-26T01:01:19.994Z,-1.90
2019-03-26T01:03:50.811Z,-2.00
2019-03-26T01:06:21.257Z,-2.20
2019-03-26T01:08:52.175Z,-2.30
2019-03-26T01:11:23.069Z,-2.50
2019-03-26T01:13:53.655Z,-2.50
2019-03-26T01:16:24.188Z,-2.60
2019-03-26T01:18:55.029Z,-2.60
2019-03-26T01:21:25.470Z,-2.60
2019-03-26T01:23:56.172Z,-2.50
2019-03-26T01:26:27.174Z,-2.50
2019-03-26T01:28:58.144Z,-2.60
2019-03-26T01:31:28.645Z,-2.70
2019-03-26T01:33:59.642Z,-2.80
2019-03-26T01:36:30.069Z,-2.90
2019-03-26T01:39:01.099Z,-2.90
2019-03-26T01:41:32.023Z,-3.00
2019-03-26T01:44:02.870Z,-2.90
2019-03-26T01:46:33.351Z,-3.00
2019-03-26T01:49:03.844Z,-3.00
2019-03-26T01:51:34.563Z,-3.00
2019-03-26T01:54:05.009Z,-3.00
2019-03-26T01:56:35.930Z,-3.00
2019-03-26T01:59:06.385Z,-3.00
2019-03-26T02:01:36.857Z,-3.10
2019-03-26T02:04:07.629Z,-3.10
2019-03-26T02:06:38.130Z,-3.00
2019-03-26T02:09:08.991Z,-3.00
2019-03-26T02:11:39.808Z,-3.10
2019-03-26T02:14:10.770Z,-3.10
2019-03-26T02:16:41.282Z,-3.10
2019-03-26T02:19:12.029Z,-3.30
2019-03-26T02:21:42.470Z,-3.30
2019-03-26T02:24:13.317Z,-3.30
2019-03-26T02:26:44.134Z,-3.30
2019-03-26T02:29:14.988Z,-3.40
2019-03-26T02:31:45.440Z,-3.40
2019-03-26T02:34:16.055Z,-3.30
2019-03-26T02:36:46.833Z,-3.40
2019-03-26T02:39:17.706Z,-3.40
2019-03-26T02:41:48.257Z,-3.40
2019-03-26T02:44:19.064Z,-3.40
2019-03-26T02:46:49.620Z,-3.40
2019-03-26T02:49:20.381Z,-3.40
2019-03-26T02:51:50.871Z,-3.50
2019-03-26T02:54:21.805Z,-3.50
2019-03-26T02:56:52.672Z,-3.60
2019-03-26T02:59:23.386Z,-3.60
2019-03-26T03:01:53.905Z,-3.60
2019-03-26T03:04:24.477Z,-3.60
2019-03-26T03:06:54.904Z,-3.70
2019-03-26T03:09:25.794Z,-3.70
2019-03-26T03:11:56.608Z,-3.70
2019-03-26T03:14:27.383Z,-3.70
2019-03-26T03:16:57.974Z,-3.60
2019-03-26T03:19:28.592Z,-3.70
2019-03-26T03:21:59.026Z,-3.60
2019-03-26T03:24:29.925Z,-3.60
2019-03-26T03:27:00.683Z,-3.60
2019-03-26T03:29:31.493Z,-3.70
2019-03-26T03:32:01.997Z,-3.70
2019-03-26T03:34:32.740Z,-3.70
2019-03-26T03:37:03.330Z,-3.70
2019-03-26T03:39:34.520Z,-3.80
2019-03-26T03:42:05.300Z,-3.70
2019-03-26T03:44:36.080Z,-3.70
2019-03-26T03:47:06.825Z,-3.70
2019-03-26T03:49:37.969Z,-3.60
2019-03-26T03:52:09.649Z,-3.70
2019-03-26T03:54:43.320Z,-3.60
2019-03-26T03:57:16.955Z,-3.60
2019-03-26T03:59:48.202Z,-3.60
2019-03-26T04:02:18.692Z,-3.60
2019-03-26T04:04:49.540Z,-3.60
2019-03-26T04:07:20.092Z,-3.70
2019-03-26T04:09:51.022Z,-3.60
2019-03-26T04:12:21.891Z,-3.50
2019-03-26T04:14:52.515Z,-3.20
2019-03-26T04:17:22.950Z,-3.10
2019-03-26T04:19:53.644Z,-3.10
2019-03-26T04:22:24.161Z,-2.90
2019-03-26T04:24:55.013Z,-2.90
2019-03-26T04:27:25.928Z,-3.00
2019-03-26T04:29:56.797Z,-3.00
2019-03-26T04:32:27.251Z,-2.60
2019-03-26T04:34:58.077Z,-2.50
2019-03-26T04:37:28.520Z,-2.50
2019-03-26T04:39:59.313Z,-2.60
2019-03-26T04:42:29.881Z,-2.50
2019-03-26T04:45:00.792Z,-2.40
2019-03-26T04:47:31.234Z,-2.40
2019-03-26T04:50:02.057Z,-2.50
2019-03-26T04:52:32.542Z,-2.60
2019-03-26T04:55:03.316Z,-2.70
2019-03-26T04:57:34.036Z,-2.70
2019-03-26T05:00:05.421Z,-2.60
2019-03-26T05:02:35.824Z,-2.50
2019-03-26T05:05:06.567Z,-2.20
2019-03-26T05:07:37.102Z,-2.00
2019-03-26T05:10:08.352Z,-1.80
2019-03-26T05:12:38.785Z,-1.50
2019-03-26T05:15:09.929Z,-1.40
2019-03-26T05:17:40.494Z,-1.30
2019-03-26T05:20:12.003Z,-1.30
2019-03-26T05:22:42.520Z,-1.20
2019-03-26T05:25:13.467Z,-1.10
2019-03-26T05:27:45.690Z,-1.30
2019-03-26T05:30:16.882Z,-1.40
2019-03-26T05:32:47.304Z,-1.30
2019-03-26T05:35:18.159Z,-1.30
2019-03-26T05:37:48.696Z,-1.10
2019-03-26T05:40:19.634Z,-1.00
2019-03-26T05:42:50.103Z,-0.90
2019-03-26T05:45:20.880Z,-1.00
2019-03-26T05:47:51.311Z,-1.00
2019-03-26T05:50:22.252Z,-1.00
2019-03-26T05:52:52.794Z,-0.90
2019-03-26T05:55:23.325Z,-0.90
2019-03-26T05:57:53.871Z,-0.70
2019-03-26T06:00:26.398Z,-0.70
2019-03-26T06:02:56.865Z,-0.70
2019-03-26T06:05:27.699Z,-0.90
2019-03-26T06:07:58.229Z,-0.90
2019-03-26T06:10:29.067Z,-0.70
2019-03-26T06:12:59.703Z,-0.60
2019-03-26T06:15:30.556Z,-0.50
2019-03-26T06:18:01.020Z,-0.30
2019-03-26T06:20:31.793Z,0.10
2019-03-26T06:23:02.241Z,0.50
2019-03-26T06:25:33.356Z,0.90
2019-03-26T06:28:04.068Z,1.10
2019-03-26T06:30:34.632Z,1.30
2019-03-26T06:33:05.064Z,1.40
2019-03-26T06:35:35.763Z,1.60
2019-03-26T06:38:06.267Z,1.70
2019-03-26T06:40:38.321Z,1.80
2019-03-26T06:43:09.100Z,2.00
2019-03-26T06:45:39.773Z,2.10
2019-03-26T06:48:10.233Z,2.20
2019-03-26T06:50:41.112Z,2.40
2019-03-26T06:53:11.568Z,2.30
2019-03-26T06:55:42.263Z,2.40
2019-03-26T06:58:13.048Z,2.50
2019-03-26T07:00:43.966Z,2.60
2019-03-26T07:03:14.458Z,2.70
2019-03-26T07:05:45.054Z,2.80
2019-03-26T07:08:15.643Z,2.90
2019-03-26T07:10:46.493Z,3.00
2019-03-26T07:13:17.395Z,3.20
2019-03-26T07:15:48.040Z,3.10
2019-03-26T07:18:18.637Z,3.20
2019-03-26T07:20:49.332Z,3.30
2019-03-26T07:23:19.787Z,3.30
2019-03-26T07:25:50.782Z,3.30
2019-03-26T07:28:21.735Z,3.20
2019-03-26T07:30:52.470Z,3.10
2019-03-26T07:33:22.909Z,3.20
2019-03-26T07:35:53.737Z,3.20
2019-03-26T07:38:24.143Z,3.30
2019-03-26T07:40:54.687Z,3.40
2019-03-26T07:43:25.545Z,3.50
2019-03-26T07:45:56.250Z,3.50
2019-03-26T07:48:26.689Z,3.60
2019-03-26T07:50:57.301Z,3.50
2019-03-26T07:53:27.740Z,3.50
2019-03-26T07:55:58.636Z,3.60
2019-03-26T07:58:29.521Z,3.60
2019-03-26T08:01:00.329Z,3.50
2019-03-26T08:03:30.781Z,3.60
2019-03-26T08:06:01.344Z,3.80
2019-03-26T08:08:31.812Z,3.80
2019-03-26T08:11:02.347Z,3.90
2019-03-26T08:13:33.198Z,3.90
2019-03-26T08:16:03.908Z,4.10
2019-03-26T08:18:34.402Z,4.20
2019-03-26T08:21:05.081Z,4.30
2019-03-26T08:23:38.301Z,4.30
2019-03-26T08:26:08.009Z,4.40
2019-03-26T08:28:38.807Z,4.50
2019-03-26T08:31:09.698Z,4.60
2019-03-26T08:33:40.124Z,4.60
2019-03-26T08:36:10.935Z,4.20
2019-03-26T08:38:41.389Z,4.10
2019-03-26T08:41:11.831Z,4.40
2019-03-26T08:43:42.836Z,4.40
2019-03-26T08:46:13.292Z,4.30
2019-03-26T08:48:44.228Z,4.20
2019-03-26T08:51:14.707Z,4.20
2019-03-26T08:53:45.393Z,4.20
2019-03-26T08:56:15.818Z,4.20
2019-03-26T08:58:47.039Z,4.40
2019-03-26T09:01:17.476Z,4.50
2019-03-26T09:03:48.054Z,4.60
2019-03-26T09:06:18.560Z,4.50
2019-03-26T09:08:49.582Z,4.60
2019-03-26T09:11:20.004Z,4.70
2019-03-26T09:13:51.152Z,4.90
2019-03-26T09:16:21.696Z,4.90
2019-03-26T09:18:52.520Z,5.00
2019-03-26T09:21:23.050Z,5.00
2019-03-26T09:23:53.798Z,4.80
2019-03-26T09:26:24.288Z,5.10
2019-03-26T09:28:55.548Z,5.30
2019-03-26T09:31:26.102Z,5.30
2019-03-26T09:33:56.815Z,5.40
2019-03-26T09:36:27.311Z,5.20
2019-03-26T09:38:58.205Z,5.20
2019-03-26T09:41:28.672Z,5.20
2019-03-26T09:43:59.874Z,5.20
2019-03-26T09:46:30.294Z,5.30
2019-03-26T09:49:01.136Z,5.50
2019-03-26T09:51:31.619Z,5.50
2019-03-26T09:54:02.184Z,5.70
2019-03-26T09:56:32.629Z,5.50
2019-03-26T09:59:03.956Z,5.30
2019-03-26T10:01:34.467Z,5.30
2019-03-26T10:04:05.335Z,5.00
2019-03-26T10:06:35.884Z,5.10
2019-03-26T10:09:08.338Z,5.40
2019-03-26T10:11:38.842Z,5.50
2019-03-26T10:14:09.922Z,5.50
2019-03-26T10:16:40.332Z,5.60
2019-03-26T10:19:11.386Z,5.70
2019-03-26T10:21:41.865Z,5.60
2019-03-26T10:24:12.575Z,5.70
2019-03-26T10:26:43.008Z,5.90
2019-03-26T10:29:29.128Z,5.90
2019-03-26T10:31:46.648Z,5.90
2019-03-26T10:34:17.339Z,5.70
2019-03-26T10:36:47.943Z,5.80
2019-03-26T10:39:18.651Z,5.90
2019-03-26T10:41:49.138Z,5.90
2019-03-26T10:44:20.267Z,6.10
2019-03-26T10:46:50.733Z,6.50
2019-03-26T10:49:21.516Z,6.60
2019-03-26T10:51:52.053Z,6.50
2019-03-26T10:54:22.638Z,6.90
2019-03-26T10:56:53.093Z,6.80
2019-03-26T10:59:24.367Z,7.20
2019-03-26T11:01:54.954Z,7.20
2019-03-26T11:04:25.639Z,7.00
2019-03-26T11:06:56.231Z,7.10
2019-03-26T11:09:27.473Z,6.90
2019-03-26T11:11:58.287Z,7.00
2019-03-26T11:14:31.780Z,6.60
2019-03-26T11:17:01.560Z,7.00
2019-03-26T11:19:32.394Z,6.80
2019-03-26T11:22:02.887Z,6.70
2019-03-26T11:24:33.659Z,6.40
2019-03-26T11:27:04.163Z,6.80
2019-03-26T11:29:35.447Z,7.10
2019-03-26T11:32:05.879Z,7.10
2019-03-26T11:34:36.614Z,6.70
2019-03-26T11:37:07.213Z,6.70
2019-03-26T11:39:37.955Z,6.60
2019-03-26T11:42:08.388Z,6.50
2019-03-26T11:44:39.639Z,6.70
2019-03-26T11:47:10.120Z,6.90
2019-03-26T11:49:40.919Z,6.80
2019-03-26T11:52:11.417Z,7.00
2019-03-26T11:54:41.863Z,7.10
2019-03-26T11:57:12.692Z,6.80
2019-03-26T11:59:43.609Z,6.70
2019-03-26T12:02:14.489Z,6.70
2019-03-26T12:04:44.917Z,6.50
2019-03-26T12:07:15.850Z,6.70
2019-03-26T12:09:46.950Z,7.00
2019-03-26T12:12:18.235Z,7.20
2019-03-26T12:14:49.177Z,7.10
2019-03-26T12:17:19.913Z,6.80
2019-03-26T12:19:50.328Z,6.60
2019-03-26T12:22:21.025Z,6.40
2019-03-26T12:24:51.461Z,6.70
2019-03-26T12:27:22.047Z,6.90
2019-03-26T12:29:52.978Z,7.00
2019-03-26T12:32:23.510Z,6.80
2019-03-26T12:34:53.911Z,7.00
2019-03-26T12:37:24.703Z,6.80
2019-03-26T12:40:00.118Z,7.20
2019-03-26T12:42:27.425Z,7.30
2019-03-26T12:44:58.371Z,7.30
2019-03-26T12:47:29.026Z,7.30
2019-03-26T12:49:59.533Z,8.00
2019-03-26T12:52:30.293Z,8.50
2019-03-26T12:55:00.753Z,8.40
2019-03-26T12:57:31.476Z,8.50
2019-03-26T13:00:02.377Z,8.50
2019-03-26T13:02:35.637Z,8.40
2019-03-26T13:05:05.358Z,8.00
2019-03-26T13:07:36.245Z,8.20
2019-03-26T13:10:13.572Z,8.50
2019-03-26T13:12:40.066Z,8.90
2019-03-26T13:15:10.985Z,9.10
2019-03-26T13:17:41.638Z,8.70
2019-03-26T13:20:12.325Z,8.40
2019-03-26T13:22:43.007Z,8.10
2019-03-26T13:25:13.637Z,8.10
2019-03-26T13:27:44.270Z,7.90
2019-03-26T13:30:16.940Z,7.90
2019-03-26T13:32:47.700Z,8.30
2019-03-26T13:35:18.363Z,8.50
2019-03-26T13:37:48.906Z,8.70
2019-03-26T13:40:27.149Z,8.80
2019-03-26T13:42:51.827Z,8.60
2019-03-26T13:45:22.633Z,8.60
2019-03-26T13:47:53.317Z,8.90
2019-03-26T13:50:23.821Z,9.80
2019-03-26T13:52:54.418Z,10.80
2019-03-26T13:55:24.821Z,11.70
2019-03-26T13:57:55.446Z,13.00
2019-03-26T14:00:39.878Z,14.10
2019-03-26T14:03:10.634Z,14.10
2019-03-26T14:05:41.124Z,13.10
2019-03-26T14:08:11.708Z,11.70
2019-03-26T14:10:42.288Z,11.70
2019-03-26T14:13:13.012Z,11.30
2019-03-26T14:15:43.894Z,10.30
2019-03-26T14:18:14.478Z,9.90
2019-03-26T14:20:44.916Z,10.50
2019-03-26T14:23:15.494Z,11.40
2019-03-26T14:25:45.998Z,13.30
2019-03-26T14:28:18.394Z,12.30
2019-03-26T14:30:49.336Z,12.00
2019-03-26T14:33:20.059Z,12.20
2019-03-26T14:35:50.653Z,11.50
2019-03-26T14:38:21.335Z,10.30
2019-03-26T14:40:55.300Z,9.90
2019-03-26T14:43:24.135Z,9.30
2019-03-26T14:45:55.044Z,9.00
2019-03-26T14:48:25.637Z,9.30
2019-03-26T14:50:56.054Z,9.20
2019-03-26T14:53:26.756Z,9.10
2019-03-26T14:55:57.254Z,8.70
2019-03-26T14:58:27.929Z,9.70
2019-03-26T15:00:59.826Z,10.30
2019-03-26T15:03:30.626Z,10.70
2019-03-26T15:06:04.345Z,10.40
2019-03-26T15:08:33.516Z,10.20
2019-03-26T15:11:08.185Z,9.80
2019-03-26T15:13:36.549Z,10.00
2019-03-26T15:16:07.536Z,10.10
2019-03-26T15:18:38.421Z,10.40
2019-03-26T15:21:08.858Z,11.00
2019-03-26T15:23:39.581Z,11.00
2019-03-26T15:26:10.021Z,10.20
2019-03-26T15:28:40.537Z,9.50
2019-03-26T15:31:11.497Z,9.30
2019-03-26T15:33:42.116Z,8.80
2019-03-26T15:36:12.612Z,8.70
2019-03-26T15:38:43.370Z,8.40
2019-03-26T15:41:21.454Z,8.00
2019-03-26T15:43:46.096Z,8.00
2019-03-26T15:46:17.110Z,7.60
2019-03-26T15:48:47.861Z,7.60
2019-03-26T15:51:18.299Z,7.40
2019-03-26T15:53:48.996Z,7.50
2019-03-26T15:56:19.454Z,7.40
2019-03-26T15:58:50.023Z,7.20
2019-03-26T16:01:24.281Z,7.10
2019-03-26T16:03:53.583Z,6.90
2019-03-26T16:06:24.057Z,6.90
2019-03-26T16:08:54.778Z,6.70
2019-03-26T16:11:35.191Z,6.70
2019-03-26T16:13:57.456Z,6.60
2019-03-26T16:16:28.233Z,6.50
2019-03-26T16:18:58.823Z,6.40
2019-03-26T16:21:29.469Z,6.30
2019-03-26T16:24:00.127Z,6.30
2019-03-26T16:26:30.564Z,6.30
2019-03-26T16:29:01.092Z,6.30
2019-03-26T16:31:31.980Z,6.20
2019-03-26T16:34:02.714Z,6.10
2019-03-26T16:36:33.203Z,6.10
2019-03-26T16:39:05.405Z,6.00
2019-03-26T16:41:48.119Z,6.00
2019-03-26T16:44:08.140Z,6.00
2019-03-26T16:46:38.983Z,6.00
2019-03-26T16:49:09.693Z,5.90
2019-03-26T16:51:40.170Z,5.90
2019-03-26T16:54:10.839Z,5.90
2019-03-26T16:56:41.282Z,5.80
2019-03-26T16:59:11.828Z,5.80
2019-03-26T17:01:42.599Z,5.70
2019-03-26T17:04:13.575Z,5.70
2019-03-26T17:06:44.059Z,5.70
2019-03-26T17:09:14.843Z,5.70
2019-03-26T17:11:45.343Z,5.70
2019-03-26T17:14:16.116Z,5.80
2019-03-26T17:16:46.798Z,5.80
2019-03-26T17:19:17.340Z,5.70
2019-03-26T17:21:47.826Z,5.70
2019-03-26T17:24:18.533Z,5.70
2019-03-26T17:26:48.992Z,5.70
2019-03-26T17:29:19.585Z,5.70
2019-03-26T17:31:50.505Z,5.70
2019-03-26T17:34:21.030Z,5.70
2019-03-26T17:36:51.566Z,5.60
2019-03-26T17:39:22.223Z,5.60
2019-03-26T17:41:52.838Z,5.70
2019-03-26T17:44:23.592Z,5.60
2019-03-26T17:46:54.334Z,5.60
2019-03-26T17:49:25.078Z,5.50
2019-03-26T17:51:55.527Z,5.50
2019-03-26T17:54:26.038Z,5.30
2019-03-26T17:56:56.522Z,5.20
2019-03-26T17:59:27.292Z,5.10
2019-03-26T18:01:58.170Z,5.00
2019-03-26T18:04:30.934Z,5.00
2019-03-26T18:07:01.389Z,5.00
2019-03-26T18:09:32.061Z,5.00
2019-03-26T18:12:02.956Z,4.90
2019-03-26T18:14:33.659Z,4.70
2019-03-26T18:17:04.399Z,4.70
2019-03-26T18:19:35.196Z,4.60
2019-03-26T18:22:05.662Z,4.50
2019-03-26T18:24:36.370Z,4.40
2019-03-26T18:27:06.954Z,4.40
2019-03-26T18:29:37.626Z,4.30
2019-03-26T18:32:08.640Z,4.20
2019-03-26T18:34:39.413Z,4.10
2019-03-26T18:37:09.823Z,4.10
2019-03-26T18:39:40.575Z,4.10
2019-03-26T18:42:11.096Z,4.10
2019-03-26T18:44:41.680Z,4.00
2019-03-26T18:47:12.735Z,4.00
2019-03-26T18:49:43.572Z,3.90
2019-03-26T18:52:14.070Z,3.80
2019-03-26T18:54:44.607Z,3.80
2019-03-26T18:57:15.203Z,3.80
2019-03-26T18:59:45.956Z,3.70
2019-03-26T19:02:16.712Z,3.60
2019-03-26T19:04:47.411Z,3.60
2019-03-26T19:07:17.865Z,3.60
2019-03-26T19:09:48.687Z,3.50
2019-03-26T19:12:19.128Z,3.50
2019-03-26T19:14:49.849Z,3.40
2019-03-26T19:17:20.631Z,3.30
2019-03-26T19:19:51.400Z,3.30
2019-03-26T19:22:21.837Z,3.20
2019-03-26T19:24:52.570Z,3.10
2019-03-26T19:27:23.020Z,3.10
2019-03-26T19:29:53.735Z,3.00
2019-03-26T19:32:24.556Z,3.10
2019-03-26T19:34:55.239Z,3.00
2019-03-26T19:37:25.705Z,3.00
2019-03-26T19:39:56.468Z,3.00
2019-03-26T19:42:26.916Z,2.90
2019-03-26T19:44:57.536Z,2.80
2019-03-26T19:47:28.424Z,2.80
2019-03-26T19:49:59.064Z,2.70
2019-03-26T19:52:29.507Z,2.60
2019-03-26T19:55:00.977Z,2.60
2019-03-26T19:57:32.636Z,2.60
2019-03-26T20:00:03.330Z,2.60
2019-03-26T20:02:34.411Z,2.70
2019-03-26T20:05:05.275Z,2.70
2019-03-26T20:07:35.920Z,2.70
2019-03-26T20:10:08.372Z,2.70
2019-03-26T20:12:39.085Z,2.70
2019-03-26T20:15:11.522Z,2.70
2019-03-26T20:17:42.352Z,2.80
2019-03-26T20:20:14.795Z,2.80
2019-03-26T20:22:45.412Z,2.80
2019-03-26T20:25:16.389Z,2.80
2019-03-26T20:27:47.391Z,2.70
2019-03-26T20:30:18.365Z,2.70
2019-03-26T20:32:49.175Z,2.80
2019-03-26T20:35:19.835Z,2.80
2019-03-26T20:37:50.537Z,2.70
2019-03-26T20:40:21.634Z,2.50
2019-03-26T20:42:52.188Z,2.50
2019-03-26T20:45:23.036Z,2.50
2019-03-26T20:47:53.634Z,2.40
2019-03-26T20:50:24.294Z,2.50
2019-03-26T20:52:55.003Z,2.50
2019-03-26T20:55:35.845Z,2.50
2019-03-26T20:58:06.991Z,2.60
2019-03-26T21:00:42.038Z,2.60
2019-03-26T21:03:12.947Z,2.60
2019-03-26T21:05:43.390Z,2.60
2019-03-26T21:08:14.089Z,2.60
2019-03-26T21:10:44.730Z,2.60
2019-03-26T21:13:15.435Z,2.60
2019-03-26T21:15:56.571Z,2.60
2019-03-26T21:18:18.882Z,2.60
2019-03-26T21:20:49.315Z,2.60
2019-03-26T21:23:20.281Z,2.60
2019-03-26T21:25:50.896Z,2.60
2019-03-26T21:28:21.524Z,2.60
2019-03-26T21:30:51.959Z,2.60
2019-03-26T21:33:22.806Z,2.60
2019-03-26T21:35:53.246Z,2.60
2019-03-26T21:38:24.051Z,2.70
2019-03-26T21:40:54.632Z,2.70
2019-03-26T21:43:25.176Z,2.60
2019-03-26T21:45:55.588Z,2.60
2019-03-26T21:48:26.897Z,2.60
2019-03-26T21:50:57.671Z,2.50
2019-03-26T21:53:28.320Z,2.40
2019-03-26T21:56:06.304Z,2.30
2019-03-26T21:58:30.999Z,2.40
2019-03-26T22:01:01.520Z,2.40
2019-03-26T22:03:32.116Z,2.40
2019-03-26T22:06:02.778Z,2.30
2019-03-26T22:08:33.364Z,2.30
2019-03-26T22:11:03.836Z,2.30
2019-03-26T22:13:34.533Z,2.30
2019-03-26T22:16:05.079Z,2.30
2019-03-26T22:18:36.002Z,2.40
2019-03-26T22:21:06.464Z,2.40
2019-03-26T22:23:37.277Z,2.40
2019-03-26T22:26:07.794Z,2.50
2019-03-26T22:28:38.420Z,2.50
2019-03-26T22:31:08.874Z,2.50
2019-03-26T22:33:39.794Z,2.50
2019-03-26T22:36:10.238Z,2.60
2019-03-26T22:38:41.068Z,2.70
2019-03-26T22:41:11.576Z,2.80
2019-03-26T22:43:42.127Z,2.80
2019-03-26T22:46:12.588Z,2.70
2019-03-26T22:48:43.504Z,2.90
2019-03-26T22:51:14.009Z,2.80
2019-03-26T22:53:44.753Z,2.70
2019-03-26T22:56:15.357Z,2.60
2019-03-26T22:58:46.018Z,2.40
2019-03-26T23:12:07.818Z,2.20
2019-03-26T23:14:44.869Z,1.90
2019-03-26T23:17:10.836Z,1.80
2019-03-26T23:19:41.345Z,1.60
2019-03-26T23:22:12.218Z,1.50
2019-03-26T23:24:42.819Z,1.40
2019-03-26T23:27:13.670Z,1.50
2019-03-26T23:29:44.131Z,1.50
2019-03-26T23:32:15.024Z,1.30
2019-03-26T23:34:45.518Z,1.40
2019-03-26T23:37:16.408Z,1.30
2019-03-26T23:39:47.271Z,1.30
2019-03-26T23:42:18.082Z,1.40
2019-03-26T23:44:58.344Z,1.50
2019-03-26T23:47:20.974Z,1.50
2019-03-26T23:49:51.458Z,1.40
2019-03-26T23:52:21.889Z,1.30
2019-03-26T23:54:52.985Z,1.30
2019-03-26T23:57:23.471Z,1.40
2019-03-26T23:59:53.887Z,1.30
